sensor_id;sensor_type;location;lat;lon;timestamp;temperature;humidity
3770;DHT22;1900;48.890;9.190;2022-07-22T00:01:34;28.70;46.20
3770;DHT22;1900;48.890;9.190;2022-07-22T00:04:00;28.60;46.20
3770;DHT22;1900;48.890;9.190;2022-07-22T00:06:27;28.60;46.20
3770;DHT22;1900;48.890;9.190;2022-07-22T00:08:53;28.50;46.20
3770;DHT22;1900;48.890;9.190;2022-07-22T00:11:19;28.60;46.40
3770;DHT22;1900;48.890;9.190;2022-07-22T00:13:44;28.50;46.40
3770;DHT22;1900;48.890;9.190;2022-07-22T00:16:11;28.50;46.50
3770;DHT22;1900;48.890;9.190;2022-07-22T00:18:37;28.50;46.60
3770;DHT22;1900;48.890;9.190;2022-07-22T00:21:03;28.40;46.50
3770;DHT22;1900;48.890;9.190;2022-07-22T00:23:29;28.40;46.60
3770;DHT22;1900;48.890;9.190;2022-07-22T00:25:54;28.40;46.60
3770;DHT22;1900;48.890;9.190;2022-07-22T00:28:20;28.30;46.60
3770;DHT22;1900;48.890;9.190;2022-07-22T00:30:46;28.30;46.60
3770;DHT22;1900;48.890;9.190;2022-07-22T00:33:11;28.30;46.70
3770;DHT22;1900;48.890;9.190;2022-07-22T00:35:37;28.30;46.70
3770;DHT22;1900;48.890;9.190;2022-07-22T00:38:03;28.30;46.70
3770;DHT22;1900;48.890;9.190;2022-07-22T00:40:28;28.20;46.70
3770;DHT22;1900;48.890;9.190;2022-07-22T00:42:54;28.20;46.70
3770;DHT22;1900;48.890;9.190;2022-07-22T00:45:20;28.20;46.80
3770;DHT22;1900;48.890;9.190;2022-07-22T00:47:46;28.10;46.80
3770;DHT22;1900;48.890;9.190;2022-07-22T00:50:11;28.20;46.90
3770;DHT22;1900;48.890;9.190;2022-07-22T00:52:42;28.10;46.80
3770;DHT22;1900;48.890;9.190;2022-07-22T00:55:09;28.10;47.00
3770;DHT22;1900;48.890;9.190;2022-07-22T00:57:34;28.10;46.90
3770;DHT22;1900;48.890;9.190;2022-07-22T01:00:01;28.10;47.00
3770;DHT22;1900;48.890;9.190;2022-07-22T01:02:27;28.10;47.00
3770;DHT22;1900;48.890;9.190;2022-07-22T01:04:53;28.00;46.90
3770;DHT22;1900;48.890;9.190;2022-07-22T01:07:19;28.00;46.90
3770;DHT22;1900;48.890;9.190;2022-07-22T01:09:45;28.00;46.90
3770;DHT22;1900;48.890;9.190;2022-07-22T01:12:11;28.00;47.00
3770;DHT22;1900;48.890;9.190;2022-07-22T01:14:37;27.90;47.00
3770;DHT22;1900;48.890;9.190;2022-07-22T01:17:04;27.90;47.10
3770;DHT22;1900;48.890;9.190;2022-07-22T01:19:29;27.90;47.10
3770;DHT22;1900;48.890;9.190;2022-07-22T01:21:55;27.90;47.10
3770;DHT22;1900;48.890;9.190;2022-07-22T01:24:21;27.90;47.10
3770;DHT22;1900;48.890;9.190;2022-07-22T01:26:48;27.90;47.20
3770;DHT22;1900;48.890;9.190;2022-07-22T01:29:14;27.80;47.20
3770;DHT22;1900;48.890;9.190;2022-07-22T01:31:40;27.90;47.30
3770;DHT22;1900;48.890;9.190;2022-07-22T01:34:06;27.80;47.30
3770;DHT22;1900;48.890;9.190;2022-07-22T01:36:34;27.80;47.20
3770;DHT22;1900;48.890;9.190;2022-07-22T01:39:01;27.80;47.80
3770;DHT22;1900;48.890;9.190;2022-07-22T01:41:27;27.80;47.30
3770;DHT22;1900;48.890;9.190;2022-07-22T01:43:52;27.80;47.40
3770;DHT22;1900;48.890;9.190;2022-07-22T01:46:18;27.80;47.40
3770;DHT22;1900;48.890;9.190;2022-07-22T01:48:44;27.80;47.50
3770;DHT22;1900;48.890;9.190;2022-07-22T01:51:11;27.80;47.40
3770;DHT22;1900;48.890;9.190;2022-07-22T01:53:37;27.80;47.40
3770;DHT22;1900;48.890;9.190;2022-07-22T01:56:04;27.70;47.40
3770;DHT22;1900;48.890;9.190;2022-07-22T01:58:34;27.70;47.50
3770;DHT22;1900;48.890;9.190;2022-07-22T02:01:00;27.70;47.60
3770;DHT22;1900;48.890;9.190;2022-07-22T02:03:26;27.70;47.50
3770;DHT22;1900;48.890;9.190;2022-07-22T02:05:51;27.70;47.30
3770;DHT22;1900;48.890;9.190;2022-07-22T02:08:23;27.60;47.20
3770;DHT22;1900;48.890;9.190;2022-07-22T02:11:23;27.60;47.20
3770;DHT22;1900;48.890;9.190;2022-07-22T02:13:54;27.50;47.10
3770;DHT22;1900;48.890;9.190;2022-07-22T02:16:20;27.50;47.20
3770;DHT22;1900;48.890;9.190;2022-07-22T02:18:48;27.40;47.20
3770;DHT22;1900;48.890;9.190;2022-07-22T02:21:13;27.30;47.30
3770;DHT22;1900;48.890;9.190;2022-07-22T02:23:39;27.30;47.20
3770;DHT22;1900;48.890;9.190;2022-07-22T02:26:05;27.20;47.20
3770;DHT22;1900;48.890;9.190;2022-07-22T02:28:31;27.20;47.40
3770;DHT22;1900;48.890;9.190;2022-07-22T02:30:56;27.10;47.40
3770;DHT22;1900;48.890;9.190;2022-07-22T02:33:23;27.10;47.40
3770;DHT22;1900;48.890;9.190;2022-07-22T02:35:49;27.00;47.60
3770;DHT22;1900;48.890;9.190;2022-07-22T02:38:15;27.00;47.50
3770;DHT22;1900;48.890;9.190;2022-07-22T02:40:41;27.00;47.60
3770;DHT22;1900;48.890;9.190;2022-07-22T02:43:08;27.00;47.80
3770;DHT22;1900;48.890;9.190;2022-07-22T02:45:34;26.90;47.60
3770;DHT22;1900;48.890;9.190;2022-07-22T02:48:00;26.90;47.70
3770;DHT22;1900;48.890;9.190;2022-07-22T02:50:26;26.90;47.80
3770;DHT22;1900;48.890;9.190;2022-07-22T02:52:52;26.90;47.90
3770;DHT22;1900;48.890;9.190;2022-07-22T02:55:21;26.80;47.80
3770;DHT22;1900;48.890;9.190;2022-07-22T02:57:48;26.80;47.80
3770;DHT22;1900;48.890;9.190;2022-07-22T03:00:14;26.70;47.60
3770;DHT22;1900;48.890;9.190;2022-07-22T03:02:40;26.70;47.80
3770;DHT22;1900;48.890;9.190;2022-07-22T03:05:06;26.60;48.30
3770;DHT22;1900;48.890;9.190;2022-07-22T03:07:36;26.60;48.00
3770;DHT22;1900;48.890;9.190;2022-07-22T03:10:03;26.60;47.90
3770;DHT22;1900;48.890;9.190;2022-07-22T03:12:31;26.60;48.00
3770;DHT22;1900;48.890;9.190;2022-07-22T03:14:57;26.50;48.00
3770;DHT22;1900;48.890;9.190;2022-07-22T03:17:23;26.50;48.00
3770;DHT22;1900;48.890;9.190;2022-07-22T03:19:49;26.40;47.90
3770;DHT22;1900;48.890;9.190;2022-07-22T03:22:14;26.40;48.00
3770;DHT22;1900;48.890;9.190;2022-07-22T03:24:40;26.40;48.20
3770;DHT22;1900;48.890;9.190;2022-07-22T03:27:06;26.40;48.10
3770;DHT22;1900;48.890;9.190;2022-07-22T03:29:31;26.40;48.20
3770;DHT22;1900;48.890;9.190;2022-07-22T03:31:57;26.30;48.20
3770;DHT22;1900;48.890;9.190;2022-07-22T03:34:37;26.30;48.40
3770;DHT22;1900;48.890;9.190;2022-07-22T03:37:06;26.30;48.30
3770;DHT22;1900;48.890;9.190;2022-07-22T03:39:32;26.30;48.30
3770;DHT22;1900;48.890;9.190;2022-07-22T03:41:57;26.30;48.50
3770;DHT22;1900;48.890;9.190;2022-07-22T03:44:23;26.20;48.30
3770;DHT22;1900;48.890;9.190;2022-07-22T03:46:49;26.20;48.50
3770;DHT22;1900;48.890;9.190;2022-07-22T03:49:15;26.20;48.50
3770;DHT22;1900;48.890;9.190;2022-07-22T03:51:41;26.20;48.60
3770;DHT22;1900;48.890;9.190;2022-07-22T03:54:07;26.20;48.70
3770;DHT22;1900;48.890;9.190;2022-07-22T03:56:35;26.20;48.80
3770;DHT22;1900;48.890;9.190;2022-07-22T03:59:02;26.20;48.80
3770;DHT22;1900;48.890;9.190;2022-07-22T04:01:29;26.30;49.00
3770;DHT22;1900;48.890;9.190;2022-07-22T04:03:55;26.30;49.00
3770;DHT22;1900;48.890;9.190;2022-07-22T04:06:30;26.30;49.10
3770;DHT22;1900;48.890;9.190;2022-07-22T04:09:02;26.30;49.10
3770;DHT22;1900;48.890;9.190;2022-07-22T04:11:28;26.30;48.90
3770;DHT22;1900;48.890;9.190;2022-07-22T04:13:54;26.30;48.80
3770;DHT22;1900;48.890;9.190;2022-07-22T04:16:20;26.30;48.70
3770;DHT22;1900;48.890;9.190;2022-07-22T04:18:54;26.20;48.60
3770;DHT22;1900;48.890;9.190;2022-07-22T04:21:37;26.20;48.60
3770;DHT22;1900;48.890;9.190;2022-07-22T04:24:08;26.20;48.80
3770;DHT22;1900;48.890;9.190;2022-07-22T04:26:34;26.20;49.00
3770;DHT22;1900;48.890;9.190;2022-07-22T04:29:04;26.20;49.10
3770;DHT22;1900;48.890;9.190;2022-07-22T04:31:30;26.20;49.20
3770;DHT22;1900;48.890;9.190;2022-07-22T04:34:03;26.20;49.20
3770;DHT22;1900;48.890;9.190;2022-07-22T04:36:28;26.20;49.30
3770;DHT22;1900;48.890;9.190;2022-07-22T04:38:54;26.20;49.40
3770;DHT22;1900;48.890;9.190;2022-07-22T04:41:20;26.30;49.40
3770;DHT22;1900;48.890;9.190;2022-07-22T04:43:46;26.30;49.50
3770;DHT22;1900;48.890;9.190;2022-07-22T04:46:12;26.30;49.50
3770;DHT22;1900;48.890;9.190;2022-07-22T04:48:41;26.30;49.30
3770;DHT22;1900;48.890;9.190;2022-07-22T04:51:08;26.30;49.30
3770;DHT22;1900;48.890;9.190;2022-07-22T04:53:34;26.30;49.40
3770;DHT22;1900;48.890;9.190;2022-07-22T04:56:00;26.30;49.40
3770;DHT22;1900;48.890;9.190;2022-07-22T04:58:26;26.30;49.60
3770;DHT22;1900;48.890;9.190;2022-07-22T05:00:51;26.30;49.60
3770;DHT22;1900;48.890;9.190;2022-07-22T05:03:17;26.30;49.50
3770;DHT22;1900;48.890;9.190;2022-07-22T05:05:44;26.30;49.50
3770;DHT22;1900;48.890;9.190;2022-07-22T05:08:11;26.30;49.50
3770;DHT22;1900;48.890;9.190;2022-07-22T05:10:37;26.30;49.60
3770;DHT22;1900;48.890;9.190;2022-07-22T05:13:03;26.30;49.70
3770;DHT22;1900;48.890;9.190;2022-07-22T05:15:31;26.40;49.90
3770;DHT22;1900;48.890;9.190;2022-07-22T05:17:57;26.40;49.80
3770;DHT22;1900;48.890;9.190;2022-07-22T05:20:26;26.40;49.60
3770;DHT22;1900;48.890;9.190;2022-07-22T05:22:52;26.40;49.60
3770;DHT22;1900;48.890;9.190;2022-07-22T05:25:25;26.40;49.70
3770;DHT22;1900;48.890;9.190;2022-07-22T05:27:52;26.40;49.70
3770;DHT22;1900;48.890;9.190;2022-07-22T05:30:23;26.40;49.90
3770;DHT22;1900;48.890;9.190;2022-07-22T05:32:49;26.40;49.90
3770;DHT22;1900;48.890;9.190;2022-07-22T05:35:20;26.40;50.00
3770;DHT22;1900;48.890;9.190;2022-07-22T05:37:47;26.40;50.10
3770;DHT22;1900;48.890;9.190;2022-07-22T05:40:13;26.50;50.20
3770;DHT22;1900;48.890;9.190;2022-07-22T05:42:39;26.50;49.70
3770;DHT22;1900;48.890;9.190;2022-07-22T05:45:05;26.50;50.80
3770;DHT22;1900;48.890;9.190;2022-07-22T05:47:31;26.60;50.30
3770;DHT22;1900;48.890;9.190;2022-07-22T05:49:57;26.60;50.30
3770;DHT22;1900;48.890;9.190;2022-07-22T05:52:22;26.70;50.30
3770;DHT22;1900;48.890;9.190;2022-07-22T05:54:49;26.60;50.20
3770;DHT22;1900;48.890;9.190;2022-07-22T05:57:15;26.70;50.30
3770;DHT22;1900;48.890;9.190;2022-07-22T05:59:41;26.70;50.30
3770;DHT22;1900;48.890;9.190;2022-07-22T06:02:08;26.70;50.40
3770;DHT22;1900;48.890;9.190;2022-07-22T06:04:39;26.70;50.40
3770;DHT22;1900;48.890;9.190;2022-07-22T06:07:05;26.70;50.30
3770;DHT22;1900;48.890;9.190;2022-07-22T06:09:32;26.80;50.30
3770;DHT22;1900;48.890;9.190;2022-07-22T06:11:58;26.80;50.40
3770;DHT22;1900;48.890;9.190;2022-07-22T06:14:24;26.80;50.40
3770;DHT22;1900;48.890;9.190;2022-07-22T06:16:50;26.80;50.50
3770;DHT22;1900;48.890;9.190;2022-07-22T06:19:15;26.80;50.50
3770;DHT22;1900;48.890;9.190;2022-07-22T06:21:41;26.80;50.60
3770;DHT22;1900;48.890;9.190;2022-07-22T06:24:10;26.90;50.70
3770;DHT22;1900;48.890;9.190;2022-07-22T06:26:36;26.90;50.70
3770;DHT22;1900;48.890;9.190;2022-07-22T06:29:02;26.90;50.70
3770;DHT22;1900;48.890;9.190;2022-07-22T06:31:28;26.90;50.80
3770;DHT22;1900;48.890;9.190;2022-07-22T06:33:54;27.00;50.80
3770;DHT22;1900;48.890;9.190;2022-07-22T06:36:20;27.00;50.90
3770;DHT22;1900;48.890;9.190;2022-07-22T06:38:46;27.10;51.00
3770;DHT22;1900;48.890;9.190;2022-07-22T06:41:40;27.10;51.00
3770;DHT22;1900;48.890;9.190;2022-07-22T06:44:20;27.10;50.90
3770;DHT22;1900;48.890;9.190;2022-07-22T06:46:58;27.20;51.00
3770;DHT22;1900;48.890;9.190;2022-07-22T06:49:25;27.20;50.90
3770;DHT22;1900;48.890;9.190;2022-07-22T06:51:52;27.20;50.90
3770;DHT22;1900;48.890;9.190;2022-07-22T06:54:18;27.20;51.00
3770;DHT22;1900;48.890;9.190;2022-07-22T06:56:44;27.30;51.10
3770;DHT22;1900;48.890;9.190;2022-07-22T06:59:15;27.30;51.20
3770;DHT22;1900;48.890;9.190;2022-07-22T07:01:42;27.30;51.20
3770;DHT22;1900;48.890;9.190;2022-07-22T07:04:08;27.40;51.20
3770;DHT22;1900;48.890;9.190;2022-07-22T07:06:33;27.40;51.30
3770;DHT22;1900;48.890;9.190;2022-07-22T07:09:28;27.50;51.40
3770;DHT22;1900;48.890;9.190;2022-07-22T07:12:03;27.50;51.40
3770;DHT22;1900;48.890;9.190;2022-07-22T07:14:59;27.60;51.50
3770;DHT22;1900;48.890;9.190;2022-07-22T07:17:24;27.60;51.50
3770;DHT22;1900;48.890;9.190;2022-07-22T07:19:52;27.60;51.50
3770;DHT22;1900;48.890;9.190;2022-07-22T07:22:18;27.70;51.50
3770;DHT22;1900;48.890;9.190;2022-07-22T07:24:44;27.70;51.50
3770;DHT22;1900;48.890;9.190;2022-07-22T07:27:09;27.80;51.70
3770;DHT22;1900;48.890;9.190;2022-07-22T07:29:36;27.80;51.60
3770;DHT22;1900;48.890;9.190;2022-07-22T07:32:02;27.90;51.60
3770;DHT22;1900;48.890;9.190;2022-07-22T07:34:28;27.90;51.70
3770;DHT22;1900;48.890;9.190;2022-07-22T07:36:54;28.00;51.70
3770;DHT22;1900;48.890;9.190;2022-07-22T07:39:20;28.00;51.80
3770;DHT22;1900;48.890;9.190;2022-07-22T07:41:46;28.00;51.80
3770;DHT22;1900;48.890;9.190;2022-07-22T07:44:14;28.10;51.90
3770;DHT22;1900;48.890;9.190;2022-07-22T07:46:40;28.10;51.90
3770;DHT22;1900;48.890;9.190;2022-07-22T07:49:06;28.20;52.10
3770;DHT22;1900;48.890;9.190;2022-07-22T07:51:32;28.30;52.10
3770;DHT22;1900;48.890;9.190;2022-07-22T07:53:57;28.40;52.20
3770;DHT22;1900;48.890;9.190;2022-07-22T07:56:23;28.40;52.20
3770;DHT22;1900;48.890;9.190;2022-07-22T07:58:49;28.50;52.20
3770;DHT22;1900;48.890;9.190;2022-07-22T08:01:15;28.60;52.20
3770;DHT22;1900;48.890;9.190;2022-07-22T08:03:41;28.60;52.20
3770;DHT22;1900;48.890;9.190;2022-07-22T08:06:07;28.70;52.30
3770;DHT22;1900;48.890;9.190;2022-07-22T08:08:33;28.70;52.30
3770;DHT22;1900;48.890;9.190;2022-07-22T08:11:05;28.80;52.40
3770;DHT22;1900;48.890;9.190;2022-07-22T08:13:49;28.90;53.10
3770;DHT22;1900;48.890;9.190;2022-07-22T08:16:38;29.00;52.60
3770;DHT22;1900;48.890;9.190;2022-07-22T08:19:05;29.00;52.40
3770;DHT22;1900;48.890;9.190;2022-07-22T08:21:31;29.10;52.50
3770;DHT22;1900;48.890;9.190;2022-07-22T08:23:59;29.10;52.60
3770;DHT22;1900;48.890;9.190;2022-07-22T08:26:25;29.20;52.70
3770;DHT22;1900;48.890;9.190;2022-07-22T08:28:51;29.30;52.80
3770;DHT22;1900;48.890;9.190;2022-07-22T08:31:17;29.40;52.90
3770;DHT22;1900;48.890;9.190;2022-07-22T08:33:43;29.40;52.90
3770;DHT22;1900;48.890;9.190;2022-07-22T08:36:09;29.50;52.90
3770;DHT22;1900;48.890;9.190;2022-07-22T08:38:35;29.50;52.90
3770;DHT22;1900;48.890;9.190;2022-07-22T08:41:03;29.70;52.80
3770;DHT22;1900;48.890;9.190;2022-07-22T08:43:35;29.70;52.80
3770;DHT22;1900;48.890;9.190;2022-07-22T08:46:02;29.80;52.90
3770;DHT22;1900;48.890;9.190;2022-07-22T08:48:32;29.80;52.90
3770;DHT22;1900;48.890;9.190;2022-07-22T08:51:23;29.90;53.00
3770;DHT22;1900;48.890;9.190;2022-07-22T08:54:14;30.00;53.70
3770;DHT22;1900;48.890;9.190;2022-07-22T08:56:40;30.00;53.00
3770;DHT22;1900;48.890;9.190;2022-07-22T08:59:08;30.10;53.10
3770;DHT22;1900;48.890;9.190;2022-07-22T09:01:34;30.10;53.10
3770;DHT22;1900;48.890;9.190;2022-07-22T09:03:59;30.30;53.20
3770;DHT22;1900;48.890;9.190;2022-07-22T09:06:30;30.30;53.20
3770;DHT22;1900;48.890;9.190;2022-07-22T09:09:04;30.40;53.30
3770;DHT22;1900;48.890;9.190;2022-07-22T09:12:07;30.50;53.30
3770;DHT22;1900;48.890;9.190;2022-07-22T09:14:52;30.60;53.30
3770;DHT22;1900;48.890;9.190;2022-07-22T09:17:35;30.70;54.00
3770;DHT22;1900;48.890;9.190;2022-07-22T09:20:22;30.80;53.50
3770;DHT22;1900;48.890;9.190;2022-07-22T09:23:13;30.80;53.40
3770;DHT22;1900;48.890;9.190;2022-07-22T09:25:41;31.00;53.40
3770;DHT22;1900;48.890;9.190;2022-07-22T09:28:25;31.00;53.30
3770;DHT22;1900;48.890;9.190;2022-07-22T09:31:26;31.10;53.50
3770;DHT22;1900;48.890;9.190;2022-07-22T09:33:56;31.10;53.40
3770;DHT22;1900;48.890;9.190;2022-07-22T09:36:26;31.20;53.50
3770;DHT22;1900;48.890;9.190;2022-07-22T09:38:54;31.30;53.50
3770;DHT22;1900;48.890;9.190;2022-07-22T09:41:20;31.40;53.50
3770;DHT22;1900;48.890;9.190;2022-07-22T09:43:48;31.50;53.50
3770;DHT22;1900;48.890;9.190;2022-07-22T09:46:15;31.50;53.50
3770;DHT22;1900;48.890;9.190;2022-07-22T09:49:00;31.60;53.60
3770;DHT22;1900;48.890;9.190;2022-07-22T09:51:34;31.70;53.60
3770;DHT22;1900;48.890;9.190;2022-07-22T09:54:14;31.80;53.70
3770;DHT22;1900;48.890;9.190;2022-07-22T09:56:40;31.90;53.50
3770;DHT22;1900;48.890;9.190;2022-07-22T09:59:06;32.00;53.60
3770;DHT22;1900;48.890;9.190;2022-07-22T10:01:39;32.10;53.60
3770;DHT22;1900;48.890;9.190;2022-07-22T10:04:06;32.20;53.70
3770;DHT22;1900;48.890;9.190;2022-07-22T10:06:34;32.20;53.60
3770;DHT22;1900;48.890;9.190;2022-07-22T10:09:05;32.40;53.70
3770;DHT22;1900;48.890;9.190;2022-07-22T10:11:32;32.40;53.60
3770;DHT22;1900;48.890;9.190;2022-07-22T10:14:00;32.50;53.50
3770;DHT22;1900;48.890;9.190;2022-07-22T10:16:26;32.60;53.50
3770;DHT22;1900;48.890;9.190;2022-07-22T10:18:53;32.70;53.50
3770;DHT22;1900;48.890;9.190;2022-07-22T10:21:31;32.70;53.10
3770;DHT22;1900;48.890;9.190;2022-07-22T10:24:11;32.80;53.10
3770;DHT22;1900;48.890;9.190;2022-07-22T10:26:53;32.90;52.80
3770;DHT22;1900;48.890;9.190;2022-07-22T10:29:38;32.90;52.90
3770;DHT22;1900;48.890;9.190;2022-07-22T10:34:43;33.00;53.10
3770;DHT22;1900;48.890;9.190;2022-07-22T10:45:41;33.40;53.10
3770;DHT22;1900;48.890;9.190;2022-07-22T10:53:40;33.70;53.10
3770;DHT22;1900;48.890;9.190;2022-07-22T10:56:31;33.90;53.40
3770;DHT22;1900;48.890;9.190;2022-07-22T10:59:07;34.00;53.60
3770;DHT22;1900;48.890;9.190;2022-07-22T11:01:34;34.00;52.80
3770;DHT22;1900;48.890;9.190;2022-07-22T11:06:47;34.20;53.10
3770;DHT22;1900;48.890;9.190;2022-07-22T11:09:13;34.30;53.30
3770;DHT22;1900;48.890;9.190;2022-07-22T11:11:53;34.40;53.30
3770;DHT22;1900;48.890;9.190;2022-07-22T11:14:30;34.50;53.20
3770;DHT22;1900;48.890;9.190;2022-07-22T11:17:05;34.60;52.90
3770;DHT22;1900;48.890;9.190;2022-07-22T11:19:32;34.70;53.20
3770;DHT22;1900;48.890;9.190;2022-07-22T11:22:11;34.80;53.30
3770;DHT22;1900;48.890;9.190;2022-07-22T11:24:39;34.90;53.40
3770;DHT22;1900;48.890;9.190;2022-07-22T11:27:13;35.00;53.30
3770;DHT22;1900;48.890;9.190;2022-07-22T11:29:40;35.10;53.60
3770;DHT22;1900;48.890;9.190;2022-07-22T11:32:11;35.20;53.00
3770;DHT22;1900;48.890;9.190;2022-07-22T11:34:39;35.40;53.30
3770;DHT22;1900;48.890;9.190;2022-07-22T11:37:08;35.50;53.40
3770;DHT22;1900;48.890;9.190;2022-07-22T11:39:34;35.60;53.10
3770;DHT22;1900;48.890;9.190;2022-07-22T11:42:01;35.70;53.10
3770;DHT22;1900;48.890;9.190;2022-07-22T11:44:30;35.80;53.10
3770;DHT22;1900;48.890;9.190;2022-07-22T11:46:57;35.90;52.90
3770;DHT22;1900;48.890;9.190;2022-07-22T11:49:30;36.10;53.00
3770;DHT22;1900;48.890;9.190;2022-07-22T11:51:59;36.20;53.00
3770;DHT22;1900;48.890;9.190;2022-07-22T11:54:25;36.30;53.00
3770;DHT22;1900;48.890;9.190;2022-07-22T11:56:51;36.40;52.90
3770;DHT22;1900;48.890;9.190;2022-07-22T11:59:17;36.50;52.80
3770;DHT22;1900;48.890;9.190;2022-07-22T12:01:44;36.60;52.70
3770;DHT22;1900;48.890;9.190;2022-07-22T12:04:17;36.70;52.90
3770;DHT22;1900;48.890;9.190;2022-07-22T12:06:44;36.80;51.50
3770;DHT22;1900;48.890;9.190;2022-07-22T12:09:15;36.90;51.70
3770;DHT22;1900;48.890;9.190;2022-07-22T12:11:46;36.90;52.00
3770;DHT22;1900;48.890;9.190;2022-07-22T12:14:17;37.00;52.00
3770;DHT22;1900;48.890;9.190;2022-07-22T12:17:10;37.10;52.10
3770;DHT22;1900;48.890;9.190;2022-07-22T12:19:37;37.30;52.00
3770;DHT22;1900;48.890;9.190;2022-07-22T12:22:09;37.40;52.20
3770;DHT22;1900;48.890;9.190;2022-07-22T12:24:44;37.50;52.10
3770;DHT22;1900;48.890;9.190;2022-07-22T12:27:18;37.60;52.10
3770;DHT22;1900;48.890;9.190;2022-07-22T12:29:46;37.70;52.10
3770;DHT22;1900;48.890;9.190;2022-07-22T12:34:57;38.00;52.50
3770;DHT22;1900;48.890;9.190;2022-07-22T12:37:25;38.20;52.30
3770;DHT22;1900;48.890;9.190;2022-07-22T12:40:05;38.30;52.40
3770;DHT22;1900;48.890;9.190;2022-07-22T12:42:43;38.40;52.10
3770;DHT22;1900;48.890;9.190;2022-07-22T12:47:50;38.60;51.30
3770;DHT22;1900;48.890;9.190;2022-07-22T12:50:34;38.70;51.50
3770;DHT22;1900;48.890;9.190;2022-07-22T12:53:11;38.80;51.80
3770;DHT22;1900;48.890;9.190;2022-07-22T12:58:13;39.00;51.60
3770;DHT22;1900;48.890;9.190;2022-07-22T13:00:41;39.10;51.30
3770;DHT22;1900;48.890;9.190;2022-07-22T13:03:07;39.20;51.10
3770;DHT22;1900;48.890;9.190;2022-07-22T13:05:33;39.30;51.20
3770;DHT22;1900;48.890;9.190;2022-07-22T13:08:01;39.30;51.30
3770;DHT22;1900;48.890;9.190;2022-07-22T13:10:28;39.50;51.20
3770;DHT22;1900;48.890;9.190;2022-07-22T13:12:54;39.50;51.20
3770;DHT22;1900;48.890;9.190;2022-07-22T13:15:20;39.60;51.20
3770;DHT22;1900;48.890;9.190;2022-07-22T13:17:47;39.70;51.10
3770;DHT22;1900;48.890;9.190;2022-07-22T13:20:14;39.80;51.10
3770;DHT22;1900;48.890;9.190;2022-07-22T13:22:42;39.90;51.10
3770;DHT22;1900;48.890;9.190;2022-07-22T13:25:09;40.00;51.20
3770;DHT22;1900;48.890;9.190;2022-07-22T13:27:34;40.10;51.20
3770;DHT22;1900;48.890;9.190;2022-07-22T13:30:00;40.20;51.20
3770;DHT22;1900;48.890;9.190;2022-07-22T13:32:26;40.30;50.80
3770;DHT22;1900;48.890;9.190;2022-07-22T13:34:52;40.40;50.90
3770;DHT22;1900;48.890;9.190;2022-07-22T13:37:18;40.60;50.80
3770;DHT22;1900;48.890;9.190;2022-07-22T13:39:43;40.60;49.00
3770;DHT22;1900;48.890;9.190;2022-07-22T13:42:12;40.60;49.30
3770;DHT22;1900;48.890;9.190;2022-07-22T13:44:38;40.60;48.60
3770;DHT22;1900;48.890;9.190;2022-07-22T13:47:04;40.60;48.90
3770;DHT22;1900;48.890;9.190;2022-07-22T13:49:30;40.60;49.30
3770;DHT22;1900;48.890;9.190;2022-07-22T13:51:55;40.70;49.40
3770;DHT22;1900;48.890;9.190;2022-07-22T13:54:21;40.80;49.60
3770;DHT22;1900;48.890;9.190;2022-07-22T13:56:47;40.80;49.70
3770;DHT22;1900;48.890;9.190;2022-07-22T13:59:15;40.90;49.80
3770;DHT22;1900;48.890;9.190;2022-07-22T14:01:42;41.00;49.60
3770;DHT22;1900;48.890;9.190;2022-07-22T14:04:08;41.10;49.60
3770;DHT22;1900;48.890;9.190;2022-07-22T14:06:34;41.20;49.60
3770;DHT22;1900;48.890;9.190;2022-07-22T14:09:00;41.30;49.70
3770;DHT22;1900;48.890;9.190;2022-07-22T14:11:26;41.30;49.20
3770;DHT22;1900;48.890;9.190;2022-07-22T14:13:51;41.50;49.40
3770;DHT22;1900;48.890;9.190;2022-07-22T14:16:17;41.50;48.90
3770;DHT22;1900;48.890;9.190;2022-07-22T14:21:28;41.60;48.80
3770;DHT22;1900;48.890;9.190;2022-07-22T14:23:54;41.60;48.70
3770;DHT22;1900;48.890;9.190;2022-07-22T14:26:20;41.60;48.70
3770;DHT22;1900;48.890;9.190;2022-07-22T14:28:46;41.70;48.70
3770;DHT22;1900;48.890;9.190;2022-07-22T14:31:11;41.70;48.70
3770;DHT22;1900;48.890;9.190;2022-07-22T14:33:37;41.70;48.50
3770;DHT22;1900;48.890;9.190;2022-07-22T14:36:03;41.70;46.30
3770;DHT22;1900;48.890;9.190;2022-07-22T14:38:29;41.60;46.70
3770;DHT22;1900;48.890;9.190;2022-07-22T14:40:54;41.50;45.90
3770;DHT22;1900;48.890;9.190;2022-07-22T14:43:20;41.40;45.90
3770;DHT22;1900;48.890;9.190;2022-07-22T14:45:46;41.30;46.40
3770;DHT22;1900;48.890;9.190;2022-07-22T14:48:11;41.30;47.00
3770;DHT22;1900;48.890;9.190;2022-07-22T14:50:37;41.30;47.30
3770;DHT22;1900;48.890;9.190;2022-07-22T14:53:03;41.30;47.30
3770;DHT22;1900;48.890;9.190;2022-07-22T14:55:29;41.30;46.70
3770;DHT22;1900;48.890;9.190;2022-07-22T14:57:55;41.30;47.00
3770;DHT22;1900;48.890;9.190;2022-07-22T15:00:20;41.30;47.20
3770;DHT22;1900;48.890;9.190;2022-07-22T15:02:46;41.30;46.80
3770;DHT22;1900;48.890;9.190;2022-07-22T15:05:12;41.30;46.90
3770;DHT22;1900;48.890;9.190;2022-07-22T15:07:38;41.30;46.30
3770;DHT22;1900;48.890;9.190;2022-07-22T15:10:04;41.30;46.40
3770;DHT22;1900;48.890;9.190;2022-07-22T15:12:29;41.20;46.40
3770;DHT22;1900;48.890;9.190;2022-07-22T15:14:55;41.20;46.50
3770;DHT22;1900;48.890;9.190;2022-07-22T15:17:21;41.20;46.30
3770;DHT22;1900;48.890;9.190;2022-07-22T15:19:47;41.10;46.60
3770;DHT22;1900;48.890;9.190;2022-07-22T15:22:12;41.10;46.40
3770;DHT22;1900;48.890;9.190;2022-07-22T15:24:38;41.10;46.40
3770;DHT22;1900;48.890;9.190;2022-07-22T15:27:04;41.10;46.50
3770;DHT22;1900;48.890;9.190;2022-07-22T15:29:29;41.10;46.50
3770;DHT22;1900;48.890;9.190;2022-07-22T15:31:55;41.10;46.40
3770;DHT22;1900;48.890;9.190;2022-07-22T15:34:21;41.00;46.20
3770;DHT22;1900;48.890;9.190;2022-07-22T15:36:47;41.00;46.30
3770;DHT22;1900;48.890;9.190;2022-07-22T15:39:13;40.90;46.00
3770;DHT22;1900;48.890;9.190;2022-07-22T15:41:40;40.80;45.90
3770;DHT22;1900;48.890;9.190;2022-07-22T15:44:06;40.80;45.30
3770;DHT22;1900;48.890;9.190;2022-07-22T15:46:33;40.60;44.90
3770;DHT22;1900;48.890;9.190;2022-07-22T15:48:59;40.50;44.80
3770;DHT22;1900;48.890;9.190;2022-07-22T15:51:25;40.40;44.90
3770;DHT22;1900;48.890;9.190;2022-07-22T15:53:52;40.30;44.90
3770;DHT22;1900;48.890;9.190;2022-07-22T15:56:18;40.20;44.60
3770;DHT22;1900;48.890;9.190;2022-07-22T15:58:46;40.10;44.70
3770;DHT22;1900;48.890;9.190;2022-07-22T16:01:31;39.90;44.60
3770;DHT22;1900;48.890;9.190;2022-07-22T16:03:57;39.80;44.30
3770;DHT22;1900;48.890;9.190;2022-07-22T16:06:23;39.70;44.50
3770;DHT22;1900;48.890;9.190;2022-07-22T16:08:48;39.50;44.60
3770;DHT22;1900;48.890;9.190;2022-07-22T16:11:14;39.40;44.50
3770;DHT22;1900;48.890;9.190;2022-07-22T16:13:40;39.40;44.50
3770;DHT22;1900;48.890;9.190;2022-07-22T16:16:06;39.30;44.40
3770;DHT22;1900;48.890;9.190;2022-07-22T16:18:32;39.20;44.40
3770;DHT22;1900;48.890;9.190;2022-07-22T16:20:57;39.10;44.50
3770;DHT22;1900;48.890;9.190;2022-07-22T16:23:23;39.10;44.70
3770;DHT22;1900;48.890;9.190;2022-07-22T16:25:49;39.00;44.60
3770;DHT22;1900;48.890;9.190;2022-07-22T16:28:16;38.90;44.50
3770;DHT22;1900;48.890;9.190;2022-07-22T16:30:41;38.90;44.60
3770;DHT22;1900;48.890;9.190;2022-07-22T16:33:07;38.80;44.20
3770;DHT22;1900;48.890;9.190;2022-07-22T16:35:33;38.70;44.30
3770;DHT22;1900;48.890;9.190;2022-07-22T16:37:59;38.70;44.40
3770;DHT22;1900;48.890;9.190;2022-07-22T16:40:24;38.60;44.30